createdAt,value
2018-06-21T00:03:01.262Z,18.1
2018-06-21T00:08:01.388Z,18.0
2018-06-21T00:13:01.233Z,19.0
2018-06-21T00:18:01.352Z,19.5
2018-06-21T00:23:01.306Z,20.0
2018-06-21T00:28:01.311Z,19.4
2018-06-21T00:33:01.276Z,18.4
2018-06-21T00:38:01.476Z,18.2
2018-06-21T00:43:01.271Z,18.0
2018-06-21T00:54:01.302Z,20.2
2018-06-21T00:59:01.308Z,21.4
2018-06-21T01:04:01.202Z,21.0
2018-06-21T01:09:11.308Z,19.8
2018-06-21T01:14:01.315Z,19.1
2018-06-21T01:19:01.371Z,16.5
2018-06-21T01:24:01.232Z,14.6
2018-06-21T01:29:06.346Z,13.8
2018-06-21T01:34:01.232Z,13.3
2018-06-21T01:39:01.243Z,11.9
2018-06-21T01:44:01.246Z,12.6
2018-06-21T01:54:01.309Z,12.0
2018-06-21T02:09:03.678Z,10.2
2018-06-21T02:14:01.297Z,9.4
2018-06-21T02:19:01.311Z,8.4
2018-06-21T02:24:01.206Z,7.6
2018-06-21T02:29:01.395Z,6.6
2018-06-21T02:34:01.246Z,6.0
2018-06-21T02:39:01.315Z,5.1
2018-06-21T02:45:01.293Z,5.0
2018-06-21T02:50:01.308Z,4.5
2018-06-21T02:55:01.201Z,4.0
2018-06-21T03:00:01.308Z,4.0
2018-06-21T03:05:01.252Z,4.7
2018-06-21T03:10:01.297Z,4.5
2018-06-21T03:15:01.239Z,4.5
2018-06-21T03:20:01.237Z,4.6
2018-06-21T03:30:01.389Z,4.1
2018-06-21T03:35:01.218Z,4.4
2018-06-21T03:40:01.742Z,4.5
2018-06-21T03:45:01.240Z,4.8
2018-06-21T04:00:01.391Z,4.7
2018-06-21T04:05:01.248Z,4.8
2018-06-21T04:10:01.307Z,4.5
2018-06-21T04:15:01.227Z,4.5
2018-06-21T04:20:01.747Z,4.6
2018-06-21T04:25:01.263Z,4.4
2018-06-21T04:30:01.461Z,4.0
2018-06-21T04:35:01.234Z,4.1
2018-06-21T04:45:06.371Z,3.7
2018-06-21T04:50:01.311Z,3.8
2018-06-21T04:55:01.250Z,4.0
2018-06-21T05:01:01.745Z,3.8
2018-06-21T05:06:01.242Z,4.1
2018-06-21T05:11:01.367Z,4.0
2018-06-21T05:16:02.329Z,3.6
2018-06-21T05:21:01.304Z,3.4
2018-06-21T05:26:01.497Z,3.5
2018-06-21T05:31:01.303Z,3.3
2018-06-21T05:36:06.249Z,3.7
2018-06-21T05:51:01.365Z,3.5
2018-06-21T06:01:01.303Z,3.1
2018-06-21T06:11:03.295Z,3.2
2018-06-21T06:21:01.366Z,3.0
2018-06-21T06:26:01.257Z,3.1
2018-06-21T06:31:01.296Z,3.4
2018-06-21T06:36:01.245Z,3.5
2018-06-21T06:41:01.237Z,3.6
2018-06-21T06:51:01.344Z,3.3
2018-06-21T06:56:01.241Z,3.2
2018-06-21T07:06:02.331Z,3.5
2018-06-21T07:11:01.288Z,4.1
2018-06-21T07:16:01.239Z,4.2
2018-06-21T07:21:01.298Z,4.1
2018-06-21T07:26:01.277Z,3.9
2018-06-21T07:31:01.370Z,4.2
2018-06-21T07:36:01.216Z,3.6
2018-06-21T07:41:01.342Z,3.8
2018-06-21T07:46:01.235Z,4.1
2018-06-21T07:56:01.304Z,3.6
2018-06-21T08:01:01.379Z,3.8
2018-06-21T08:06:01.239Z,4.0
2018-06-21T08:11:01.370Z,3.9
2018-06-21T08:16:01.238Z,4.3
2018-06-21T08:21:01.369Z,4.7
2018-06-21T08:26:01.249Z,4.8
2018-06-21T08:31:01.373Z,4.4
2018-06-21T08:42:01.364Z,4.2
2018-06-21T08:47:06.236Z,3.7
2018-06-21T08:52:01.293Z,3.6
2018-06-21T08:57:01.306Z,3.9
2018-06-21T09:02:06.344Z,3.5
2018-06-21T09:07:01.245Z,3.3
2018-06-21T09:12:01.248Z,3.6
2018-06-21T09:18:01.675Z,3.4
2018-06-21T09:23:01.293Z,3.0
2018-06-21T09:33:01.333Z,2.9
2018-06-21T09:38:06.316Z,2.5
2018-06-21T09:43:01.244Z,2.3
2018-06-21T09:48:01.697Z,2.1
2018-06-21T09:58:01.299Z,2.0
2018-06-21T10:08:01.378Z,2.2
2018-06-21T10:13:02.367Z,2.4
2018-06-21T10:18:01.381Z,2.8
2018-06-21T10:23:01.613Z,3.4
2018-06-21T10:28:06.328Z,3.6
2018-06-21T10:33:01.234Z,3.7
2018-06-21T10:38:01.299Z,4.0
2018-06-21T10:43:01.592Z,3.8
2018-06-21T10:48:01.466Z,3.6
2018-06-21T10:53:01.276Z,3.8
2018-06-21T10:58:01.366Z,3.7
2018-06-21T11:03:01.269Z,3.4
2018-06-21T11:08:01.282Z,3.3
2018-06-21T11:18:01.302Z,3.2
2018-06-21T11:23:01.312Z,3.4
2018-06-21T11:28:06.409Z,3.8
2018-06-21T11:33:02.271Z,4.0
2018-06-21T11:43:02.278Z,4.3
2018-06-21T11:48:01.309Z,4.8
2018-06-21T11:53:02.259Z,4.7
2018-06-21T11:58:01.747Z,4.8
2018-06-21T12:03:06.244Z,5.6
2018-06-21T12:08:01.370Z,5.8
2018-06-21T12:23:01.751Z,5.7
2018-06-21T12:28:02.101Z,4.9
2018-06-21T12:33:01.251Z,4.5
2018-06-21T12:38:01.406Z,3.8
2018-06-21T12:48:01.360Z,3.6
2018-06-21T12:58:01.317Z,3.4
2018-06-21T13:03:01.205Z,3.8
2018-06-21T13:08:01.301Z,3.6
2018-06-21T13:30:01.140Z,4.0
2018-06-21T13:35:01.344Z,3.5
2018-06-21T13:40:01.082Z,3.3
2018-06-21T13:45:01.339Z,3.5
2018-06-21T13:50:01.243Z,3.6
2018-06-21T14:00:01.055Z,3.8
2018-06-21T14:05:01.021Z,4.2
2018-06-21T14:15:01.193Z,4.0
2018-06-21T14:20:01.192Z,4.2
2018-06-21T14:25:01.086Z,4.0
2018-06-21T14:30:01.157Z,3.9
2018-06-21T14:45:01.140Z,3.7
2018-06-21T14:50:01.071Z,3.5
2018-06-21T14:55:01.102Z,3.4
2018-06-21T15:00:01.141Z,3.8
2018-06-21T15:10:01.181Z,4.0
2018-06-21T15:15:06.090Z,4.2
2018-06-21T15:20:01.859Z,4.3
2018-06-21T15:25:01.140Z,4.0
2018-06-21T15:30:01.187Z,4.2
2018-06-21T15:35:01.090Z,4.0
2018-06-21T15:40:06.160Z,4.1
2018-06-21T15:45:06.110Z,3.8
2018-06-21T15:50:01.134Z,3.6
2018-06-21T15:55:01.066Z,3.4
2018-06-21T16:00:01.301Z,3.2
2018-06-21T16:05:01.182Z,3.1
2018-06-21T16:15:01.303Z,3.1
2018-06-21T16:20:01.184Z,3.2
2018-06-21T16:25:01.129Z,3.4
2018-06-21T16:30:02.179Z,3.3
2018-06-21T16:35:01.115Z,3.4
2018-06-21T16:40:01.184Z,3.5
2018-06-21T16:45:01.131Z,3.4
2018-06-21T16:50:01.164Z,3.2
2018-06-21T16:55:01.132Z,3.4
2018-06-21T17:00:01.327Z,3.8
2018-06-21T17:05:01.193Z,3.9
2018-06-21T17:15:02.296Z,3.8
2018-06-21T17:20:02.420Z,3.6
2018-06-21T17:25:01.342Z,3.5
2018-06-21T17:30:01.231Z,3.3
2018-06-21T17:40:01.239Z,3.5
2018-06-21T17:45:01.157Z,3.5
2018-06-21T17:50:01.218Z,3.1
2018-06-21T17:55:06.149Z,3.3
2018-06-21T18:00:01.348Z,3.4
2018-06-21T18:05:01.225Z,3.1
2018-06-21T18:10:01.354Z,3.0
2018-06-21T18:15:01.237Z,2.8
2018-06-21T18:20:01.485Z,2.6
2018-06-21T18:25:01.198Z,2.8
2018-06-21T18:30:01.363Z,3.0
2018-06-21T18:40:01.744Z,3.5
2018-06-21T18:45:01.197Z,3.4
2018-06-21T18:50:01.167Z,3.2
2018-06-21T19:00:01.305Z,3.4
2018-06-21T19:05:01.244Z,3.6
2018-06-21T19:15:01.281Z,3.6
2018-06-21T19:20:01.321Z,3.5
2018-06-21T19:25:01.280Z,3.4
2018-06-21T19:30:01.543Z,3.5
2018-06-21T19:40:06.269Z,3.7
2018-06-21T19:45:01.200Z,4.0
2018-06-21T19:55:01.273Z,3.2
2018-06-21T20:00:01.422Z,3.4
2018-06-21T20:05:01.268Z,3.3
2018-06-21T20:15:01.339Z,3.3
2018-06-21T20:20:11.275Z,3.7
2018-06-21T20:30:02.142Z,3.8
2018-06-21T20:35:01.283Z,4.2
2018-06-21T20:40:01.217Z,4.4
2018-06-21T20:45:01.201Z,4.4
2018-06-21T20:50:01.224Z,4.3
2018-06-21T20:55:06.485Z,4.1
2018-06-21T21:00:06.365Z,4.1
2018-06-21T21:20:00.702Z,2.4
2018-06-21T21:25:01.762Z,3.2
2018-06-21T21:30:00.699Z,3.8
2018-06-21T21:35:00.602Z,4.0
2018-06-21T21:45:00.736Z,4.1
2018-06-21T21:55:00.846Z,4.2
2018-06-21T22:00:00.807Z,4.0
2018-06-21T22:10:00.776Z,4.4
2018-06-21T22:15:00.660Z,4.7
2018-06-21T22:20:00.720Z,4.5
2018-06-21T22:25:00.688Z,4.7
2018-06-21T22:30:00.809Z,4.8
2018-06-21T22:35:01.712Z,4.5
2018-06-21T22:40:00.791Z,4.0
2018-06-21T22:45:05.683Z,4.0
2018-06-21T22:50:00.733Z,4.3
2018-06-21T22:55:00.640Z,4.5
2018-06-21T23:00:00.765Z,4.4
2018-06-21T23:05:00.707Z,4.2
2018-06-21T23:10:00.714Z,4.7
2018-06-21T23:15:01.772Z,4.3
2018-06-21T23:20:00.785Z,4.2
2018-06-21T23:25:00.746Z,4.4
2018-06-21T23:30:00.784Z,5.0
2018-06-21T23:35:00.721Z,4.8
2018-06-21T23:40:00.851Z,4.7
2018-06-21T23:45:01.525Z,5.0
2018-06-21T23:55:01.454Z,4.9
